sensor_id;sensor_type;location;lat;lon;timestamp;temperature;humidity
68801;SHT31;55784;50.734;7.086;2023-02-01T00:01:47;7.05;90.57
68801;SHT31;55784;50.734;7.086;2023-02-01T00:04:12;6.97;90.70
68801;SHT31;55784;50.734;7.086;2023-02-01T00:06:38;6.94;90.87
68801;SHT31;55784;50.734;7.086;2023-02-01T00:09:03;6.94;90.88
68801;SHT31;55784;50.734;7.086;2023-02-01T00:11:29;6.87;90.82
68801;SHT31;55784;50.734;7.086;2023-02-01T00:13:54;6.71;91.15
68801;SHT31;55784;50.734;7.086;2023-02-01T00:16:25;6.57;91.36
68801;SHT31;55784;50.734;7.086;2023-02-01T00:18:55;6.51;91.62
68801;SHT31;55784;50.734;7.086;2023-02-01T00:21:21;6.50;91.85
68801;SHT31;55784;50.734;7.086;2023-02-01T00:23:48;6.47;92.02
68801;SHT31;55784;50.734;7.086;2023-02-01T00:26:18;6.54;92.14
68801;SHT31;55784;50.734;7.086;2023-02-01T00:28:44;6.58;91.98
68801;SHT31;55784;50.734;7.086;2023-02-01T00:31:09;6.66;91.77
68801;SHT31;55784;50.734;7.086;2023-02-01T00:33:35;6.67;91.50
68801;SHT31;55784;50.734;7.086;2023-02-01T00:36:02;6.70;91.30
68801;SHT31;55784;50.734;7.086;2023-02-01T00:38:29;6.70;90.86
68801;SHT31;55784;50.734;7.086;2023-02-01T00:41:02;6.69;90.41
68801;SHT31;55784;50.734;7.086;2023-02-01T00:43:27;6.70;89.88
68801;SHT31;55784;50.734;7.086;2023-02-01T00:45:52;6.77;89.38
68801;SHT31;55784;50.734;7.086;2023-02-01T00:48:17;6.84;88.30
68801;SHT31;55784;50.734;7.086;2023-02-01T00:50:43;6.90;87.78
68801;SHT31;55784;50.734;7.086;2023-02-01T00:53:09;6.97;87.26
68801;SHT31;55784;50.734;7.086;2023-02-01T00:55:35;7.08;85.56
68801;SHT31;55784;50.734;7.086;2023-02-01T00:58:00;7.12;85.36
68801;SHT31;55784;50.734;7.086;2023-02-01T01:00:26;7.11;84.84
68801;SHT31;55784;50.734;7.086;2023-02-01T01:02:51;7.16;83.55
68801;SHT31;55784;50.734;7.086;2023-02-01T01:05:16;7.16;83.10
68801;SHT31;55784;50.734;7.086;2023-02-01T01:07:42;7.18;83.00
68801;SHT31;55784;50.734;7.086;2023-02-01T01:10:07;7.15;83.39
68801;SHT31;55784;50.734;7.086;2023-02-01T01:12:33;7.16;82.95
68801;SHT31;55784;50.734;7.086;2023-02-01T01:14:58;7.16;83.04
68801;SHT31;55784;50.734;7.086;2023-02-01T01:17:23;7.15;83.01
68801;SHT31;55784;50.734;7.086;2023-02-01T01:19:48;7.12;83.15
68801;SHT31;55784;50.734;7.086;2023-02-01T01:22:14;7.08;83.00
68801;SHT31;55784;50.734;7.086;2023-02-01T01:24:39;7.05;82.90
68801;SHT31;55784;50.734;7.086;2023-02-01T01:27:04;7.08;82.54
68801;SHT31;55784;50.734;7.086;2023-02-01T01:29:29;7.07;82.35
68801;SHT31;55784;50.734;7.086;2023-02-01T01:31:55;7.09;82.45
68801;SHT31;55784;50.734;7.086;2023-02-01T01:34:20;7.08;82.03
68801;SHT31;55784;50.734;7.086;2023-02-01T01:36:45;7.05;81.84
68801;SHT31;55784;50.734;7.086;2023-02-01T01:39:11;7.05;81.88
68801;SHT31;55784;50.734;7.086;2023-02-01T01:41:36;7.04;82.19
68801;SHT31;55784;50.734;7.086;2023-02-01T01:44:04;7.08;81.94
68801;SHT31;55784;50.734;7.086;2023-02-01T01:46:34;7.01;81.55
68801;SHT31;55784;50.734;7.086;2023-02-01T01:49:14;6.98;82.10
68801;SHT31;55784;50.734;7.086;2023-02-01T01:51:44;7.01;82.25
68801;SHT31;55784;50.734;7.086;2023-02-01T01:54:16;7.01;81.64
68801;SHT31;55784;50.734;7.086;2023-02-01T01:56:48;7.00;82.63
68801;SHT31;55784;50.734;7.086;2023-02-01T01:59:16;6.97;82.36
68801;SHT31;55784;50.734;7.086;2023-02-01T02:01:42;6.94;82.30
68801;SHT31;55784;50.734;7.086;2023-02-01T02:04:07;6.92;82.52
68801;SHT31;55784;50.734;7.086;2023-02-01T02:09:04;6.90;82.85
68801;SHT31;55784;50.734;7.086;2023-02-01T02:11:29;6.87;82.41
68801;SHT31;55784;50.734;7.086;2023-02-01T02:13:55;6.94;82.53
68801;SHT31;55784;50.734;7.086;2023-02-01T02:24:54;6.95;82.41
68801;SHT31;55784;50.734;7.086;2023-02-01T02:27:39;6.97;82.33
68801;SHT31;55784;50.734;7.086;2023-02-01T02:36:01;6.98;82.25
68801;SHT31;55784;50.734;7.086;2023-02-01T02:44:48;6.97;82.27
68801;SHT31;55784;50.734;7.086;2023-02-01T02:47:45;7.00;82.24
68801;SHT31;55784;50.734;7.086;2023-02-01T02:50:14;7.00;82.33
68801;SHT31;55784;50.734;7.086;2023-02-01T02:53:23;7.01;82.30
68801;SHT31;55784;50.734;7.086;2023-02-01T02:56:09;7.05;82.36
68801;SHT31;55784;50.734;7.086;2023-02-01T02:58:54;7.05;82.18
68801;SHT31;55784;50.734;7.086;2023-02-01T03:01:38;7.02;82.05
68801;SHT31;55784;50.734;7.086;2023-02-01T03:04:23;7.04;82.08
68801;SHT31;55784;50.734;7.086;2023-02-01T03:06:51;7.04;82.31
68801;SHT31;55784;50.734;7.086;2023-02-01T03:09:26;7.05;82.21
68801;SHT31;55784;50.734;7.086;2023-02-01T03:11:58;7.02;81.91
68801;SHT31;55784;50.734;7.086;2023-02-01T03:14:45;7.02;81.85
68801;SHT31;55784;50.734;7.086;2023-02-01T03:17:14;7.02;81.68
68801;SHT31;55784;50.734;7.086;2023-02-01T03:19:47;7.01;81.75
68801;SHT31;55784;50.734;7.086;2023-02-01T03:22:24;7.01;81.80
68801;SHT31;55784;50.734;7.086;2023-02-01T03:25:03;7.05;81.75
68801;SHT31;55784;50.734;7.086;2023-02-01T03:27:37;7.05;81.55
68801;SHT31;55784;50.734;7.086;2023-02-01T03:32:44;7.08;81.62
68801;SHT31;55784;50.734;7.086;2023-02-01T03:41:36;7.00;81.67
68801;SHT31;55784;50.734;7.086;2023-02-01T03:44:31;7.02;82.08
68801;SHT31;55784;50.734;7.086;2023-02-01T03:47:10;7.05;82.44
68801;SHT31;55784;50.734;7.086;2023-02-01T03:49:58;7.05;81.82
68801;SHT31;55784;50.734;7.086;2023-02-01T03:52:29;7.09;81.91
68801;SHT31;55784;50.734;7.086;2023-02-01T03:54:55;7.09;81.89
68801;SHT31;55784;50.734;7.086;2023-02-01T03:57:27;7.05;81.95
68801;SHT31;55784;50.734;7.086;2023-02-01T04:00:04;7.07;82.03
68801;SHT31;55784;50.734;7.086;2023-02-01T04:02:29;7.07;82.01
68801;SHT31;55784;50.734;7.086;2023-02-01T04:04:55;7.05;82.07
68801;SHT31;55784;50.734;7.086;2023-02-01T04:07:20;7.04;82.32
68801;SHT31;55784;50.734;7.086;2023-02-01T04:09:46;6.92;82.82
68801;SHT31;55784;50.734;7.086;2023-02-01T04:12:11;6.91;83.07
68801;SHT31;55784;50.734;7.086;2023-02-01T04:14:36;6.85;83.18
68801;SHT31;55784;50.734;7.086;2023-02-01T04:17:02;6.83;83.15
68801;SHT31;55784;50.734;7.086;2023-02-01T04:19:27;6.77;82.80
68801;SHT31;55784;50.734;7.086;2023-02-01T04:21:52;6.77;82.73
68801;SHT31;55784;50.734;7.086;2023-02-01T04:24:18;6.77;82.62
68801;SHT31;55784;50.734;7.086;2023-02-01T04:26:43;6.73;82.92
68801;SHT31;55784;50.734;7.086;2023-02-01T04:29:09;6.71;83.20
68801;SHT31;55784;50.734;7.086;2023-02-01T04:31:35;6.69;83.27
68801;SHT31;55784;50.734;7.086;2023-02-01T04:34:01;6.64;82.52
68801;SHT31;55784;50.734;7.086;2023-02-01T04:36:26;6.70;82.08
68801;SHT31;55784;50.734;7.086;2023-02-01T04:38:52;6.70;82.78
68801;SHT31;55784;50.734;7.086;2023-02-01T04:41:18;6.73;82.81
68801;SHT31;55784;50.734;7.086;2023-02-01T04:43:47;6.74;82.30
68801;SHT31;55784;50.734;7.086;2023-02-01T04:46:13;6.70;82.52
68801;SHT31;55784;50.734;7.086;2023-02-01T04:48:38;6.71;82.25
68801;SHT31;55784;50.734;7.086;2023-02-01T04:51:03;6.70;82.41
68801;SHT31;55784;50.734;7.086;2023-02-01T04:53:29;6.69;82.15
68801;SHT31;55784;50.734;7.086;2023-02-01T04:55:55;6.63;82.13
68801;SHT31;55784;50.734;7.086;2023-02-01T04:58:20;6.67;81.84
68801;SHT31;55784;50.734;7.086;2023-02-01T05:00:46;6.66;82.32
68801;SHT31;55784;50.734;7.086;2023-02-01T05:03:11;6.66;81.96
68801;SHT31;55784;50.734;7.086;2023-02-01T05:05:37;6.58;82.09
68801;SHT31;55784;50.734;7.086;2023-02-01T05:08:02;6.47;81.89
68801;SHT31;55784;50.734;7.086;2023-02-01T05:10:28;6.34;82.23
68801;SHT31;55784;50.734;7.086;2023-02-01T05:12:53;6.26;82.23
68801;SHT31;55784;50.734;7.086;2023-02-01T05:15:37;6.17;82.26
68801;SHT31;55784;50.734;7.086;2023-02-01T05:18:02;6.09;82.42
68801;SHT31;55784;50.734;7.086;2023-02-01T05:20:28;6.03;82.49
68801;SHT31;55784;50.734;7.086;2023-02-01T05:22:53;5.99;82.48
68801;SHT31;55784;50.734;7.086;2023-02-01T05:25:18;5.96;82.84
68801;SHT31;55784;50.734;7.086;2023-02-01T05:27:44;5.91;82.82
68801;SHT31;55784;50.734;7.086;2023-02-01T05:30:10;5.91;83.07
68801;SHT31;55784;50.734;7.086;2023-02-01T05:32:35;5.91;83.00
68801;SHT31;55784;50.734;7.086;2023-02-01T05:35:01;5.91;82.63
68801;SHT31;55784;50.734;7.086;2023-02-01T05:37:27;5.95;82.73
68801;SHT31;55784;50.734;7.086;2023-02-01T05:39:52;5.95;82.98
68801;SHT31;55784;50.734;7.086;2023-02-01T05:42:18;5.94;83.03
68801;SHT31;55784;50.734;7.086;2023-02-01T05:44:43;5.89;83.36
68801;SHT31;55784;50.734;7.086;2023-02-01T05:47:09;5.88;83.01
68801;SHT31;55784;50.734;7.086;2023-02-01T05:49:34;5.86;82.49
68801;SHT31;55784;50.734;7.086;2023-02-01T05:51:59;5.81;82.56
68801;SHT31;55784;50.734;7.086;2023-02-01T05:54:25;5.81;82.76
68801;SHT31;55784;50.734;7.086;2023-02-01T05:56:50;5.72;82.79
68801;SHT31;55784;50.734;7.086;2023-02-01T05:59:15;5.72;83.21
68801;SHT31;55784;50.734;7.086;2023-02-01T06:01:41;5.71;83.11
68801;SHT31;55784;50.734;7.086;2023-02-01T06:04:06;5.66;82.85
68801;SHT31;55784;50.734;7.086;2023-02-01T06:06:31;5.61;82.96
68801;SHT31;55784;50.734;7.086;2023-02-01T06:08:57;5.66;82.76
68801;SHT31;55784;50.734;7.086;2023-02-01T06:11:22;5.64;82.54
68801;SHT31;55784;50.734;7.086;2023-02-01T06:13:47;5.75;82.73
68801;SHT31;55784;50.734;7.086;2023-02-01T06:16:13;5.71;82.49
68801;SHT31;55784;50.734;7.086;2023-02-01T06:18:40;5.74;82.25
68801;SHT31;55784;50.734;7.086;2023-02-01T06:21:06;5.74;82.34
68801;SHT31;55784;50.734;7.086;2023-02-01T06:23:32;5.79;82.36
68801;SHT31;55784;50.734;7.086;2023-02-01T06:26:03;5.84;82.37
68801;SHT31;55784;50.734;7.086;2023-02-01T06:28:30;5.79;82.15
68801;SHT31;55784;50.734;7.086;2023-02-01T06:30:56;5.69;82.38
68801;SHT31;55784;50.734;7.086;2023-02-01T06:33:26;5.68;82.85
68801;SHT31;55784;50.734;7.086;2023-02-01T06:35:58;5.55;83.19
68801;SHT31;55784;50.734;7.086;2023-02-01T06:38:25;5.59;83.24
68801;SHT31;55784;50.734;7.086;2023-02-01T06:40:56;5.58;83.67
68801;SHT31;55784;50.734;7.086;2023-02-01T06:43:53;5.61;83.63
68801;SHT31;55784;50.734;7.086;2023-02-01T06:46:38;5.61;83.57
68801;SHT31;55784;50.734;7.086;2023-02-01T06:49:07;5.62;83.54
68801;SHT31;55784;50.734;7.086;2023-02-01T06:51:33;5.74;83.45
68801;SHT31;55784;50.734;7.086;2023-02-01T06:54:00;5.89;83.38
68801;SHT31;55784;50.734;7.086;2023-02-01T06:56:25;5.92;82.87
68801;SHT31;55784;50.734;7.086;2023-02-01T06:58:51;5.98;83.06
68801;SHT31;55784;50.734;7.086;2023-02-01T07:01:16;5.98;83.09
68801;SHT31;55784;50.734;7.086;2023-02-01T07:03:42;6.01;82.97
68801;SHT31;55784;50.734;7.086;2023-02-01T07:06:09;6.01;83.00
68801;SHT31;55784;50.734;7.086;2023-02-01T07:08:36;6.03;83.44
68801;SHT31;55784;50.734;7.086;2023-02-01T07:11:07;5.95;83.29
68801;SHT31;55784;50.734;7.086;2023-02-01T07:13:33;5.91;83.29
68801;SHT31;55784;50.734;7.086;2023-02-01T07:16:03;5.91;83.28
68801;SHT31;55784;50.734;7.086;2023-02-01T07:18:30;5.89;83.26
68801;SHT31;55784;50.734;7.086;2023-02-01T07:20:56;5.95;83.36
68801;SHT31;55784;50.734;7.086;2023-02-01T07:23:22;5.94;83.98
68801;SHT31;55784;50.734;7.086;2023-02-01T07:25:47;5.95;83.83
68801;SHT31;55784;50.734;7.086;2023-02-01T07:28:13;5.89;83.60
68801;SHT31;55784;50.734;7.086;2023-02-01T07:30:39;5.88;83.27
68801;SHT31;55784;50.734;7.086;2023-02-01T07:33:04;5.94;83.45
68801;SHT31;55784;50.734;7.086;2023-02-01T07:35:29;5.95;83.76
68801;SHT31;55784;50.734;7.086;2023-02-01T07:37:57;5.96;83.65
68801;SHT31;55784;50.734;7.086;2023-02-01T07:40:23;5.99;83.53
68801;SHT31;55784;50.734;7.086;2023-02-01T07:42:54;6.03;82.63
68801;SHT31;55784;50.734;7.086;2023-02-01T07:45:19;6.03;83.13
68801;SHT31;55784;50.734;7.086;2023-02-01T07:47:45;6.05;82.67
68801;SHT31;55784;50.734;7.086;2023-02-01T07:50:10;6.10;82.66
68801;SHT31;55784;50.734;7.086;2023-02-01T07:52:35;6.16;83.29
68801;SHT31;55784;50.734;7.086;2023-02-01T07:55:01;6.13;82.02
68801;SHT31;55784;50.734;7.086;2023-02-01T07:57:26;6.17;82.67
68801;SHT31;55784;50.734;7.086;2023-02-01T07:59:52;6.22;82.40
68801;SHT31;55784;50.734;7.086;2023-02-01T08:02:35;6.20;82.15
68801;SHT31;55784;50.734;7.086;2023-02-01T08:05:00;6.26;82.00
68801;SHT31;55784;50.734;7.086;2023-02-01T08:07:26;6.26;82.16
68801;SHT31;55784;50.734;7.086;2023-02-01T08:09:51;6.36;82.51
68801;SHT31;55784;50.734;7.086;2023-02-01T08:12:16;6.44;81.91
68801;SHT31;55784;50.734;7.086;2023-02-01T08:14:42;6.39;81.70
68801;SHT31;55784;50.734;7.086;2023-02-01T08:17:07;6.46;82.00
68801;SHT31;55784;50.734;7.086;2023-02-01T08:19:33;6.51;81.49
68801;SHT31;55784;50.734;7.086;2023-02-01T08:21:58;6.53;81.10
68801;SHT31;55784;50.734;7.086;2023-02-01T08:24:24;6.56;80.90
68801;SHT31;55784;50.734;7.086;2023-02-01T08:26:50;6.58;81.23
68801;SHT31;55784;50.734;7.086;2023-02-01T08:29:15;6.64;81.12
68801;SHT31;55784;50.734;7.086;2023-02-01T08:31:41;6.71;80.99
68801;SHT31;55784;50.734;7.086;2023-02-01T08:34:08;6.77;80.82
68801;SHT31;55784;50.734;7.086;2023-02-01T08:36:33;6.73;80.63
68801;SHT31;55784;50.734;7.086;2023-02-01T08:38:59;6.77;81.32
68801;SHT31;55784;50.734;7.086;2023-02-01T08:41:27;6.77;80.09
68801;SHT31;55784;50.734;7.086;2023-02-01T08:43:53;6.84;80.65
68801;SHT31;55784;50.734;7.086;2023-02-01T08:46:19;6.94;80.11
68801;SHT31;55784;50.734;7.086;2023-02-01T08:48:46;7.00;79.64
68801;SHT31;55784;50.734;7.086;2023-02-01T08:51:13;7.07;79.52
68801;SHT31;55784;50.734;7.086;2023-02-01T08:53:40;7.11;79.53
68801;SHT31;55784;50.734;7.086;2023-02-01T08:56:07;7.08;79.40
68801;SHT31;55784;50.734;7.086;2023-02-01T08:58:32;7.11;78.83
68801;SHT31;55784;50.734;7.086;2023-02-01T09:01:03;7.22;79.12
68801;SHT31;55784;50.734;7.086;2023-02-01T09:03:28;7.12;79.85
68801;SHT31;55784;50.734;7.086;2023-02-01T09:06:02;7.15;78.78
68801;SHT31;55784;50.734;7.086;2023-02-01T09:08:27;7.18;79.37
68801;SHT31;55784;50.734;7.086;2023-02-01T09:10:53;7.28;78.68
68801;SHT31;55784;50.734;7.086;2023-02-01T09:13:18;7.33;78.42
68801;SHT31;55784;50.734;7.086;2023-02-01T09:15:44;7.45;78.75
68801;SHT31;55784;50.734;7.086;2023-02-01T09:18:09;7.45;77.89
68801;SHT31;55784;50.734;7.086;2023-02-01T09:20:36;7.39;78.17
68801;SHT31;55784;50.734;7.086;2023-02-01T09:23:02;7.49;77.98
68801;SHT31;55784;50.734;7.086;2023-02-01T09:25:27;7.69;77.44
68801;SHT31;55784;50.734;7.086;2023-02-01T09:27:53;7.65;77.07
68801;SHT31;55784;50.734;7.086;2023-02-01T09:30:18;7.75;77.22
68801;SHT31;55784;50.734;7.086;2023-02-01T09:32:44;7.75;76.44
68801;SHT31;55784;50.734;7.086;2023-02-01T09:35:09;7.77;76.63
68801;SHT31;55784;50.734;7.086;2023-02-01T09:37:34;7.77;76.61
68801;SHT31;55784;50.734;7.086;2023-02-01T09:40:01;7.69;76.97
68801;SHT31;55784;50.734;7.086;2023-02-01T09:42:38;7.61;77.19
68801;SHT31;55784;50.734;7.086;2023-02-01T09:47:59;7.62;77.56
68801;SHT31;55784;50.734;7.086;2023-02-01T09:50:36;7.63;77.36
68801;SHT31;55784;50.734;7.086;2023-02-01T09:55:43;7.69;77.90
68801;SHT31;55784;50.734;7.086;2023-02-01T09:58:15;7.77;76.81
68801;SHT31;55784;50.734;7.086;2023-02-01T10:00:48;7.91;76.82
68801;SHT31;55784;50.734;7.086;2023-02-01T10:03:15;7.93;77.36
68801;SHT31;55784;50.734;7.086;2023-02-01T10:08:37;7.97;77.02
68801;SHT31;55784;50.734;7.086;2023-02-01T10:14:10;7.96;76.39
68801;SHT31;55784;50.734;7.086;2023-02-01T10:16:48;8.01;75.89
68801;SHT31;55784;50.734;7.086;2023-02-01T10:19:24;7.98;75.97
68801;SHT31;55784;50.734;7.086;2023-02-01T10:21:59;7.94;76.70
68801;SHT31;55784;50.734;7.086;2023-02-01T10:24:51;7.91;76.45
68801;SHT31;55784;50.734;7.086;2023-02-01T10:27:28;8.04;76.33
68801;SHT31;55784;50.734;7.086;2023-02-01T10:30:05;8.36;75.35
68801;SHT31;55784;50.734;7.086;2023-02-01T10:32:35;8.34;75.04
68801;SHT31;55784;50.734;7.086;2023-02-01T10:37:43;8.24;74.71
68801;SHT31;55784;50.734;7.086;2023-02-01T10:42:35;8.23;75.53
68801;SHT31;55784;50.734;7.086;2023-02-01T10:45:02;8.20;74.30
68801;SHT31;55784;50.734;7.086;2023-02-01T10:47:28;8.23;75.21
68801;SHT31;55784;50.734;7.086;2023-02-01T10:52:39;8.31;74.63
68801;SHT31;55784;50.734;7.086;2023-02-01T10:58:17;8.58;73.61
68801;SHT31;55784;50.734;7.086;2023-02-01T11:00:46;8.72;73.07
68801;SHT31;55784;50.734;7.086;2023-02-01T11:06:21;8.79;72.93
68801;SHT31;55784;50.734;7.086;2023-02-01T11:08:50;8.78;73.45
68801;SHT31;55784;50.734;7.086;2023-02-01T11:11:17;8.64;72.70
68801;SHT31;55784;50.734;7.086;2023-02-01T11:13:43;8.81;72.57
68801;SHT31;55784;50.734;7.086;2023-02-01T11:16:13;9.02;72.38
68801;SHT31;55784;50.734;7.086;2023-02-01T11:18:42;9.08;72.25
68801;SHT31;55784;50.734;7.086;2023-02-01T11:21:09;9.19;72.53
68801;SHT31;55784;50.734;7.086;2023-02-01T11:23:41;9.19;72.87
68801;SHT31;55784;50.734;7.086;2023-02-01T11:26:28;8.96;73.24
68801;SHT31;55784;50.734;7.086;2023-02-01T11:28:59;8.99;72.78
68801;SHT31;55784;50.734;7.086;2023-02-01T11:31:27;8.83;73.22
68801;SHT31;55784;50.734;7.086;2023-02-01T11:34:06;8.82;72.65
68801;SHT31;55784;50.734;7.086;2023-02-01T11:36:33;9.00;72.15
68801;SHT31;55784;50.734;7.086;2023-02-01T11:42:29;9.03;72.51
68801;SHT31;55784;50.734;7.086;2023-02-01T11:44:47;9.00;72.00
68801;SHT31;55784;50.734;7.086;2023-02-01T11:47:30;9.18;71.49
68801;SHT31;55784;50.734;7.086;2023-02-01T11:49:58;9.32;71.18
68801;SHT31;55784;50.734;7.086;2023-02-01T11:55:24;9.39;71.26
68801;SHT31;55784;50.734;7.086;2023-02-01T12:14:59;8.86;72.10
68801;SHT31;55784;50.734;7.086;2023-02-01T12:20:49;8.72;71.70
68801;SHT31;55784;50.734;7.086;2023-02-01T12:23:45;8.68;71.26
68801;SHT31;55784;50.734;7.086;2023-02-01T12:26:31;8.68;71.70
68801;SHT31;55784;50.734;7.086;2023-02-01T12:29:22;8.72;71.40
68801;SHT31;55784;50.734;7.086;2023-02-01T12:38:00;8.72;72.08
68801;SHT31;55784;50.734;7.086;2023-02-01T12:41:02;8.76;71.83
68801;SHT31;55784;50.734;7.086;2023-02-01T12:43:44;8.89;71.12
68801;SHT31;55784;50.734;7.086;2023-02-01T12:46:14;8.96;71.21
68801;SHT31;55784;50.734;7.086;2023-02-01T12:51:38;8.93;70.88
68801;SHT31;55784;50.734;7.086;2023-02-01T12:54:26;8.79;71.04
68801;SHT31;55784;50.734;7.086;2023-02-01T12:56:57;8.69;71.09
68801;SHT31;55784;50.734;7.086;2023-02-01T12:59:31;8.78;71.06
68801;SHT31;55784;50.734;7.086;2023-02-01T13:05:04;8.98;70.12
68801;SHT31;55784;50.734;7.086;2023-02-01T13:07:38;9.03;70.13
68801;SHT31;55784;50.734;7.086;2023-02-01T13:10:30;8.99;70.61
68801;SHT31;55784;50.734;7.086;2023-02-01T13:15:49;9.09;70.49
68801;SHT31;55784;50.734;7.086;2023-02-01T13:18:18;9.06;70.37
68801;SHT31;55784;50.734;7.086;2023-02-01T13:21:04;9.05;70.60
68801;SHT31;55784;50.734;7.086;2023-02-01T13:23:36;8.89;71.16
68801;SHT31;55784;50.734;7.086;2023-02-01T13:26:02;8.86;70.87
68801;SHT31;55784;50.734;7.086;2023-02-01T13:28:44;8.79;71.82
68801;SHT31;55784;50.734;7.086;2023-02-01T13:34:31;8.71;72.24
68801;SHT31;55784;50.734;7.086;2023-02-01T13:39:50;8.67;72.84
68801;SHT31;55784;50.734;7.086;2023-02-01T13:42:22;8.61;73.39
68801;SHT31;55784;50.734;7.086;2023-02-01T13:44:57;8.59;73.53
68801;SHT31;55784;50.734;7.086;2023-02-01T13:47:33;8.55;74.51
68801;SHT31;55784;50.734;7.086;2023-02-01T13:50:26;8.54;74.29
68801;SHT31;55784;50.734;7.086;2023-02-01T13:52:58;8.52;74.56
68801;SHT31;55784;50.734;7.086;2023-02-01T13:55:33;8.51;74.35
68801;SHT31;55784;50.734;7.086;2023-02-01T13:58:14;8.45;74.86
68801;SHT31;55784;50.734;7.086;2023-02-01T14:00:41;8.48;74.17
68801;SHT31;55784;50.734;7.086;2023-02-01T14:03:20;8.44;74.20
68801;SHT31;55784;50.734;7.086;2023-02-01T14:08:39;8.47;73.82
68801;SHT31;55784;50.734;7.086;2023-02-01T14:11:05;8.51;74.24
68801;SHT31;55784;50.734;7.086;2023-02-01T14:13:48;8.48;74.21
68801;SHT31;55784;50.734;7.086;2023-02-01T14:16:15;8.55;73.95
68801;SHT31;55784;50.734;7.086;2023-02-01T14:21:27;8.58;74.33
68801;SHT31;55784;50.734;7.086;2023-02-01T14:26:25;8.62;73.46
68801;SHT31;55784;50.734;7.086;2023-02-01T14:28:59;8.61;73.78
68801;SHT31;55784;50.734;7.086;2023-02-01T14:31:32;8.62;73.67
68801;SHT31;55784;50.734;7.086;2023-02-01T14:33:59;8.62;73.41
68801;SHT31;55784;50.734;7.086;2023-02-01T14:36:26;8.65;73.46
68801;SHT31;55784;50.734;7.086;2023-02-01T14:39:04;8.71;73.74
68801;SHT31;55784;50.734;7.086;2023-02-01T14:41:33;8.69;73.36
68801;SHT31;55784;50.734;7.086;2023-02-01T14:47:05;8.79;73.18
68801;SHT31;55784;50.734;7.086;2023-02-01T14:49:48;8.79;73.14
68801;SHT31;55784;50.734;7.086;2023-02-01T14:52:17;8.79;72.95
68801;SHT31;55784;50.734;7.086;2023-02-01T14:54:47;8.76;73.11
68801;SHT31;55784;50.734;7.086;2023-02-01T14:57:18;8.76;72.61
68801;SHT31;55784;50.734;7.086;2023-02-01T14:59:45;8.75;73.16
68801;SHT31;55784;50.734;7.086;2023-02-01T15:02:21;8.76;73.07
68801;SHT31;55784;50.734;7.086;2023-02-01T15:04:54;8.73;72.69
68801;SHT31;55784;50.734;7.086;2023-02-01T15:07:20;8.79;73.24
68801;SHT31;55784;50.734;7.086;2023-02-01T15:09:48;8.81;72.78
68801;SHT31;55784;50.734;7.086;2023-02-01T15:12:39;8.81;72.38
68801;SHT31;55784;50.734;7.086;2023-02-01T15:15:22;8.85;73.12
68801;SHT31;55784;50.734;7.086;2023-02-01T15:17:55;8.83;72.51
68801;SHT31;55784;50.734;7.086;2023-02-01T15:20:24;8.82;72.94
68801;SHT31;55784;50.734;7.086;2023-02-01T15:22:59;8.82;72.97
68801;SHT31;55784;50.734;7.086;2023-02-01T15:25:27;8.82;73.36
68801;SHT31;55784;50.734;7.086;2023-02-01T15:27:53;8.82;72.95
68801;SHT31;55784;50.734;7.086;2023-02-01T15:30:22;8.82;73.23
68801;SHT31;55784;50.734;7.086;2023-02-01T15:32:48;8.82;72.84
68801;SHT31;55784;50.734;7.086;2023-02-01T15:41:00;8.82;73.69
68801;SHT31;55784;50.734;7.086;2023-02-01T15:43:28;8.82;73.31
68801;SHT31;55784;50.734;7.086;2023-02-01T15:45:59;8.75;73.04
68801;SHT31;55784;50.734;7.086;2023-02-01T15:48:26;8.75;73.28
68801;SHT31;55784;50.734;7.086;2023-02-01T15:50:52;8.76;73.50
68801;SHT31;55784;50.734;7.086;2023-02-01T15:53:22;8.73;74.91
68801;SHT31;55784;50.734;7.086;2023-02-01T15:55:52;8.72;74.72
68801;SHT31;55784;50.734;7.086;2023-02-01T15:58:21;8.68;76.36
68801;SHT31;55784;50.734;7.086;2023-02-01T16:00:49;8.62;77.60
68801;SHT31;55784;50.734;7.086;2023-02-01T16:03:34;8.40;78.99
68801;SHT31;55784;50.734;7.086;2023-02-01T16:06:03;8.30;80.14
68801;SHT31;55784;50.734;7.086;2023-02-01T16:08:30;8.21;80.95
68801;SHT31;55784;50.734;7.086;2023-02-01T16:13:33;8.10;81.71
68801;SHT31;55784;50.734;7.086;2023-02-01T16:15:58;8.11;82.55
68801;SHT31;55784;50.734;7.086;2023-02-01T16:18:23;8.03;82.66
68801;SHT31;55784;50.734;7.086;2023-02-01T16:20:48;8.04;82.30
68801;SHT31;55784;50.734;7.086;2023-02-01T16:23:14;7.93;82.78
68801;SHT31;55784;50.734;7.086;2023-02-01T16:25:43;7.93;83.92
68801;SHT31;55784;50.734;7.086;2023-02-01T16:28:09;7.93;83.88
68801;SHT31;55784;50.734;7.086;2023-02-01T16:30:34;7.87;83.68
68801;SHT31;55784;50.734;7.086;2023-02-01T16:33:01;7.84;84.03
68801;SHT31;55784;50.734;7.086;2023-02-01T16:35:37;7.80;84.79
68801;SHT31;55784;50.734;7.086;2023-02-01T16:38:04;7.77;84.10
68801;SHT31;55784;50.734;7.086;2023-02-01T16:40:37;7.76;85.11
68801;SHT31;55784;50.734;7.086;2023-02-01T16:43:11;7.72;85.16
68801;SHT31;55784;50.734;7.086;2023-02-01T16:45:37;7.66;85.68
68801;SHT31;55784;50.734;7.086;2023-02-01T16:48:04;7.61;86.60
68801;SHT31;55784;50.734;7.086;2023-02-01T16:50:32;7.53;86.16
68801;SHT31;55784;50.734;7.086;2023-02-01T16:53:01;7.49;86.66
68801;SHT31;55784;50.734;7.086;2023-02-01T17:06:03;7.33;87.60
68801;SHT31;55784;50.734;7.086;2023-02-01T18:38:00;7.45;86.47
68801;SHT31;55784;50.734;7.086;2023-02-01T18:48:13;7.43;85.67
68801;SHT31;55784;50.734;7.086;2023-02-01T18:50:41;7.45;85.51
68801;SHT31;55784;50.734;7.086;2023-02-01T18:53:22;7.51;85.90
68801;SHT31;55784;50.734;7.086;2023-02-01T18:56:03;7.49;85.25
68801;SHT31;55784;50.734;7.086;2023-02-01T18:58:52;7.49;84.95
68801;SHT31;55784;50.734;7.086;2023-02-01T19:01:19;7.49;85.31
68801;SHT31;55784;50.734;7.086;2023-02-01T19:04:05;7.53;85.14
68801;SHT31;55784;50.734;7.086;2023-02-01T19:06:33;7.56;85.27
68801;SHT31;55784;50.734;7.086;2023-02-01T19:08:59;7.55;84.74
68801;SHT31;55784;50.734;7.086;2023-02-01T19:11:26;7.55;85.22
68801;SHT31;55784;50.734;7.086;2023-02-01T19:13:52;7.55;84.50
68801;SHT31;55784;50.734;7.086;2023-02-01T19:16:19;7.53;84.79
68801;SHT31;55784;50.734;7.086;2023-02-01T19:18:49;7.56;84.71
68801;SHT31;55784;50.734;7.086;2023-02-01T19:21:14;7.56;84.62
68801;SHT31;55784;50.734;7.086;2023-02-01T19:23:40;7.58;84.58
68801;SHT31;55784;50.734;7.086;2023-02-01T19:26:13;7.63;84.40
68801;SHT31;55784;50.734;7.086;2023-02-01T19:28:39;7.61;84.26
68801;SHT31;55784;50.734;7.086;2023-02-01T19:31:06;7.63;84.03
68801;SHT31;55784;50.734;7.086;2023-02-01T19:33:32;7.66;84.07
68801;SHT31;55784;50.734;7.086;2023-02-01T19:36:02;7.66;83.93
68801;SHT31;55784;50.734;7.086;2023-02-01T19:38:30;7.69;83.63
68801;SHT31;55784;50.734;7.086;2023-02-01T19:40:55;7.67;83.45
68801;SHT31;55784;50.734;7.086;2023-02-01T19:43:21;7.70;83.77
68801;SHT31;55784;50.734;7.086;2023-02-01T19:45:47;7.67;83.45
68801;SHT31;55784;50.734;7.086;2023-02-01T19:48:12;7.66;83.66
68801;SHT31;55784;50.734;7.086;2023-02-01T19:50:40;7.70;83.89
68801;SHT31;55784;50.734;7.086;2023-02-01T19:53:05;7.67;83.82